Terminal Aerodrome Forecast
Issued by NWS

Home | Current Version | Previous Version | Text Only | Print | Product List | Glossary On
Versions: 1 2 3 4 5 6 7 8 9 10 11 12 13 14 15 16 17 18
000
FTUS46 KOTX 181140 CCA
TAFCOE
TAF COR
KCOE 181140Z 1812/1912 08008KT 4SM -RASN BR BKN018 OVC030
      WS020/23036KT
     FM181400 18009KT 4SM -RA BR BKN015 OVC025
     FM181800 22012G20KT P6SM -SHRA BKN012 OVC025
     FM182300 21008KT P6SM SCT008 BKN015 BKN090
     FM190900 20007KT 5SM BR VCSH BKN015 OVC040=

USA.gov is the U.S. government's official web portal to all federal, state and local government web resources and services.